Terminal Aerodrome Forecast
Issued by NWS

Home | Current Version | Previous Version | Text Only | Print | Product List | Glossary On
Versions: 1 2 3 4 5 6 7 8 9 10 11 12 13 14 15 16
636
FTUS42 KMLB 250542
TAFTIX
TAF
KTIX 250542Z 2506/2606 32004KT P6SM FEW008
     FM250800 32004KT P6SM SCT005
      TEMPO 2509/2512 3SM BR BKN005
     FM251500 33006KT P6SM SCT035
     FM260000 00000KT P6SM SCT250
      AMD NOT SKED TIL 251200=

USA.gov is the U.S. government's official web portal to all federal, state and local government web resources and services.